Terminal Aerodrome Forecast
Issued by NWS

Current Version | Previous Version | Graphics & Text | Print | Product List | Glossary On
Versions: 1 2 3 4 5 6 7 8 9 10 11 12 13 14 15 16 17 18 19 20 21 22 23 24 25 26
000
FTUS41 KRLX 191100
TAFCKB
TAF
KCKB 191139Z 1912/2012 24004KT 6SM BR SCT009 BKN019
     FM191300 25005KT P6SM BKN015
     FM191400 26007KT P6SM BKN035
     FM191900 27008KT P6SM SCT050
     FM200500 30004KT P6SM SCT050
     FM200800 30004KT 2SM BR BKN003=

USA.gov is the U.S. government's official web portal to all federal, state and local government web resources and services.